sensor_id;sensor_type;location;lat;lon;timestamp;temperature;humidity
13482;DHT22;6813;60.352;15.746;2024-02-15T00:00:44;3.20;99.90
13482;DHT22;6813;60.352;15.746;2024-02-15T00:03:10;3.20;99.90
13482;DHT22;6813;60.352;15.746;2024-02-15T00:05:39;3.20;99.90
13482;DHT22;6813;60.352;15.746;2024-02-15T00:08:04;3.30;99.90
13482;DHT22;6813;60.352;15.746;2024-02-15T00:10:31;3.30;99.90
13482;DHT22;6813;60.352;15.746;2024-02-15T00:12:58;3.10;99.90
13482;DHT22;6813;60.352;15.746;2024-02-15T00:15:24;3.00;99.90
13482;DHT22;6813;60.352;15.746;2024-02-15T00:17:49;2.90;99.90
13482;DHT22;6813;60.352;15.746;2024-02-15T00:20:15;2.90;99.90
13482;DHT22;6813;60.352;15.746;2024-02-15T00:22:43;2.90;99.90
13482;DHT22;6813;60.352;15.746;2024-02-15T00:25:09;3.00;99.90
13482;DHT22;6813;60.352;15.746;2024-02-15T00:27:36;3.10;99.90
13482;DHT22;6813;60.352;15.746;2024-02-15T00:30:03;3.20;99.90
13482;DHT22;6813;60.352;15.746;2024-02-15T00:32:30;3.30;99.90
13482;DHT22;6813;60.352;15.746;2024-02-15T00:34:56;3.40;99.90
13482;DHT22;6813;60.352;15.746;2024-02-15T00:37:22;3.40;99.90
13482;DHT22;6813;60.352;15.746;2024-02-15T00:39:48;3.50;99.90
13482;DHT22;6813;60.352;15.746;2024-02-15T00:42:13;3.50;99.90
13482;DHT22;6813;60.352;15.746;2024-02-15T00:44:41;3.60;99.90
13482;DHT22;6813;60.352;15.746;2024-02-15T00:47:09;3.60;99.90
13482;DHT22;6813;60.352;15.746;2024-02-15T00:49:35;3.60;99.90
13482;DHT22;6813;60.352;15.746;2024-02-15T00:52:01;3.60;99.90
13482;DHT22;6813;60.352;15.746;2024-02-15T00:54:27;3.60;99.90
13482;DHT22;6813;60.352;15.746;2024-02-15T00:56:53;3.60;99.90
13482;DHT22;6813;60.352;15.746;2024-02-15T00:59:18;3.60;99.90
13482;DHT22;6813;60.352;15.746;2024-02-15T01:01:44;3.60;99.90
13482;DHT22;6813;60.352;15.746;2024-02-15T01:04:10;3.60;99.90
13482;DHT22;6813;60.352;15.746;2024-02-15T01:06:36;3.50;99.90
13482;DHT22;6813;60.352;15.746;2024-02-15T01:09:02;3.50;99.90
13482;DHT22;6813;60.352;15.746;2024-02-15T01:11:30;3.50;99.90
13482;DHT22;6813;60.352;15.746;2024-02-15T01:13:57;3.50;99.90
13482;DHT22;6813;60.352;15.746;2024-02-15T01:16:24;3.50;99.90
13482;DHT22;6813;60.352;15.746;2024-02-15T01:18:52;3.30;99.90
13482;DHT22;6813;60.352;15.746;2024-02-15T01:21:18;3.10;99.90
13482;DHT22;6813;60.352;15.746;2024-02-15T01:23:44;3.00;99.90
13482;DHT22;6813;60.352;15.746;2024-02-15T01:26:12;2.90;99.90
13482;DHT22;6813;60.352;15.746;2024-02-15T01:28:39;2.80;99.90
13482;DHT22;6813;60.352;15.746;2024-02-15T01:31:07;2.70;99.90
13482;DHT22;6813;60.352;15.746;2024-02-15T01:33:35;2.50;99.90
13482;DHT22;6813;60.352;15.746;2024-02-15T01:36:02;2.30;99.90
13482;DHT22;6813;60.352;15.746;2024-02-15T01:38:28;2.20;99.90
13482;DHT22;6813;60.352;15.746;2024-02-15T01:40:53;2.10;99.90
13482;DHT22;6813;60.352;15.746;2024-02-15T01:43:19;2.10;99.90
13482;DHT22;6813;60.352;15.746;2024-02-15T01:45:45;2.00;99.90
13482;DHT22;6813;60.352;15.746;2024-02-15T01:48:13;2.00;99.90
13482;DHT22;6813;60.352;15.746;2024-02-15T01:50:40;2.00;99.90
13482;DHT22;6813;60.352;15.746;2024-02-15T01:53:07;2.10;99.90
13482;DHT22;6813;60.352;15.746;2024-02-15T01:55:37;2.30;99.90
13482;DHT22;6813;60.352;15.746;2024-02-15T01:58:03;2.30;99.90
13482;DHT22;6813;60.352;15.746;2024-02-15T02:00:30;2.30;99.90
13482;DHT22;6813;60.352;15.746;2024-02-15T02:02:57;2.40;99.90
13482;DHT22;6813;60.352;15.746;2024-02-15T02:05:27;2.40;99.90
13482;DHT22;6813;60.352;15.746;2024-02-15T02:07:56;2.50;99.90
13482;DHT22;6813;60.352;15.746;2024-02-15T02:10:27;2.50;99.90
13482;DHT22;6813;60.352;15.746;2024-02-15T02:12:52;2.60;99.90
13482;DHT22;6813;60.352;15.746;2024-02-15T02:15:18;2.70;99.90
13482;DHT22;6813;60.352;15.746;2024-02-15T02:17:49;2.70;99.90
13482;DHT22;6813;60.352;15.746;2024-02-15T02:20:16;2.70;99.90
13482;DHT22;6813;60.352;15.746;2024-02-15T02:22:44;2.50;99.90
13482;DHT22;6813;60.352;15.746;2024-02-15T02:25:12;2.30;99.90
13482;DHT22;6813;60.352;15.746;2024-02-15T02:27:38;2.00;99.90
13482;DHT22;6813;60.352;15.746;2024-02-15T02:30:15;1.90;99.90
13482;DHT22;6813;60.352;15.746;2024-02-15T02:32:42;1.90;99.90
13482;DHT22;6813;60.352;15.746;2024-02-15T02:35:08;2.10;99.90
13482;DHT22;6813;60.352;15.746;2024-02-15T02:37:40;2.20;99.90
13482;DHT22;6813;60.352;15.746;2024-02-15T02:40:06;2.20;99.90
13482;DHT22;6813;60.352;15.746;2024-02-15T02:42:53;2.20;99.90
13482;DHT22;6813;60.352;15.746;2024-02-15T02:45:21;2.10;99.90
13482;DHT22;6813;60.352;15.746;2024-02-15T02:47:54;1.90;99.90
13482;DHT22;6813;60.352;15.746;2024-02-15T02:50:21;1.80;99.90
13482;DHT22;6813;60.352;15.746;2024-02-15T02:52:48;1.70;99.90
13482;DHT22;6813;60.352;15.746;2024-02-15T02:55:14;1.60;99.90
13482;DHT22;6813;60.352;15.746;2024-02-15T02:57:40;1.70;99.90
13482;DHT22;6813;60.352;15.746;2024-02-15T03:00:12;1.70;99.90
13482;DHT22;6813;60.352;15.746;2024-02-15T03:02:40;1.50;99.90
13482;DHT22;6813;60.352;15.746;2024-02-15T03:05:07;1.40;99.90
13482;DHT22;6813;60.352;15.746;2024-02-15T03:07:37;1.30;99.90
13482;DHT22;6813;60.352;15.746;2024-02-15T03:10:06;1.20;99.90
13482;DHT22;6813;60.352;15.746;2024-02-15T03:12:39;1.20;99.90
13482;DHT22;6813;60.352;15.746;2024-02-15T03:15:06;1.30;99.90
13482;DHT22;6813;60.352;15.746;2024-02-15T03:17:39;1.30;99.90
13482;DHT22;6813;60.352;15.746;2024-02-15T03:20:07;1.40;99.90
13482;DHT22;6813;60.352;15.746;2024-02-15T03:22:37;1.50;99.90
13482;DHT22;6813;60.352;15.746;2024-02-15T03:25:07;1.60;99.90
13482;DHT22;6813;60.352;15.746;2024-02-15T03:27:36;1.80;99.90
13482;DHT22;6813;60.352;15.746;2024-02-15T03:30:06;1.90;99.90
13482;DHT22;6813;60.352;15.746;2024-02-15T03:32:32;2.00;99.90
13482;DHT22;6813;60.352;15.746;2024-02-15T03:34:58;2.10;99.90
13482;DHT22;6813;60.352;15.746;2024-02-15T03:37:26;2.20;99.90
13482;DHT22;6813;60.352;15.746;2024-02-15T03:39:52;2.30;99.90
13482;DHT22;6813;60.352;15.746;2024-02-15T03:42:17;2.40;99.90
13482;DHT22;6813;60.352;15.746;2024-02-15T03:44:43;2.20;99.90
13482;DHT22;6813;60.352;15.746;2024-02-15T03:47:09;2.10;99.90
13482;DHT22;6813;60.352;15.746;2024-02-15T03:49:34;2.10;99.90
13482;DHT22;6813;60.352;15.746;2024-02-15T03:52:00;2.00;99.90
13482;DHT22;6813;60.352;15.746;2024-02-15T03:54:26;2.10;99.90
13482;DHT22;6813;60.352;15.746;2024-02-15T03:56:51;2.20;99.90
13482;DHT22;6813;60.352;15.746;2024-02-15T03:59:21;2.30;99.90
13482;DHT22;6813;60.352;15.746;2024-02-15T04:01:55;2.40;99.90
13482;DHT22;6813;60.352;15.746;2024-02-15T04:04:21;2.50;99.90
13482;DHT22;6813;60.352;15.746;2024-02-15T04:06:51;2.60;99.90
13482;DHT22;6813;60.352;15.746;2024-02-15T04:09:18;2.60;99.90
13482;DHT22;6813;60.352;15.746;2024-02-15T04:11:44;2.70;99.90
13482;DHT22;6813;60.352;15.746;2024-02-15T04:14:12;2.80;99.90
13482;DHT22;6813;60.352;15.746;2024-02-15T04:16:38;2.80;99.90
13482;DHT22;6813;60.352;15.746;2024-02-15T04:19:04;2.90;99.90
13482;DHT22;6813;60.352;15.746;2024-02-15T04:21:30;2.90;99.90
13482;DHT22;6813;60.352;15.746;2024-02-15T04:23:56;2.90;99.90
13482;DHT22;6813;60.352;15.746;2024-02-15T04:26:22;2.90;99.90
13482;DHT22;6813;60.352;15.746;2024-02-15T04:28:54;3.00;99.90
13482;DHT22;6813;60.352;15.746;2024-02-15T04:31:20;3.00;99.90
13482;DHT22;6813;60.352;15.746;2024-02-15T04:33:55;3.00;99.90
13482;DHT22;6813;60.352;15.746;2024-02-15T04:36:21;3.00;99.90
13482;DHT22;6813;60.352;15.746;2024-02-15T04:38:51;3.00;99.90
13482;DHT22;6813;60.352;15.746;2024-02-15T04:41:18;3.00;99.90
13482;DHT22;6813;60.352;15.746;2024-02-15T04:43:52;3.00;99.90
13482;DHT22;6813;60.352;15.746;2024-02-15T04:46:18;3.00;99.90
13482;DHT22;6813;60.352;15.746;2024-02-15T04:48:47;3.10;99.90
13482;DHT22;6813;60.352;15.746;2024-02-15T04:51:15;3.10;99.90
13482;DHT22;6813;60.352;15.746;2024-02-15T04:53:43;3.00;99.90
13482;DHT22;6813;60.352;15.746;2024-02-15T04:56:08;2.90;99.90
13482;DHT22;6813;60.352;15.746;2024-02-15T04:58:40;2.90;99.90
13482;DHT22;6813;60.352;15.746;2024-02-15T05:01:13;2.90;99.90
13482;DHT22;6813;60.352;15.746;2024-02-15T05:03:39;2.80;99.90
13482;DHT22;6813;60.352;15.746;2024-02-15T05:06:05;2.80;99.90
13482;DHT22;6813;60.352;15.746;2024-02-15T05:08:34;2.80;99.90
13482;DHT22;6813;60.352;15.746;2024-02-15T05:11:02;2.80;99.90
13482;DHT22;6813;60.352;15.746;2024-02-15T05:13:29;2.80;99.90
13482;DHT22;6813;60.352;15.746;2024-02-15T05:15:56;2.90;99.90
13482;DHT22;6813;60.352;15.746;2024-02-15T05:18:22;2.80;99.90
13482;DHT22;6813;60.352;15.746;2024-02-15T05:20:48;2.70;99.90
13482;DHT22;6813;60.352;15.746;2024-02-15T05:23:13;2.30;99.90
13482;DHT22;6813;60.352;15.746;2024-02-15T05:25:40;1.90;99.90
13482;DHT22;6813;60.352;15.746;2024-02-15T05:28:07;1.70;99.90
13482;DHT22;6813;60.352;15.746;2024-02-15T05:30:33;1.90;99.90
13482;DHT22;6813;60.352;15.746;2024-02-15T05:32:59;2.00;99.90
13482;DHT22;6813;60.352;15.746;2024-02-15T05:35:25;2.20;99.90
13482;DHT22;6813;60.352;15.746;2024-02-15T05:37:52;2.40;99.90
13482;DHT22;6813;60.352;15.746;2024-02-15T05:40:18;2.60;99.90
13482;DHT22;6813;60.352;15.746;2024-02-15T05:42:45;2.70;99.90
13482;DHT22;6813;60.352;15.746;2024-02-15T05:47:52;2.70;99.90
13482;DHT22;6813;60.352;15.746;2024-02-15T05:50:18;2.80;99.90
13482;DHT22;6813;60.352;15.746;2024-02-15T05:52:49;2.90;99.90
13482;DHT22;6813;60.352;15.746;2024-02-15T05:55:17;3.00;99.90
13482;DHT22;6813;60.352;15.746;2024-02-15T05:57:44;3.10;99.90
13482;DHT22;6813;60.352;15.746;2024-02-15T06:00:10;3.00;99.90
13482;DHT22;6813;60.352;15.746;2024-02-15T06:02:36;3.00;99.90
13482;DHT22;6813;60.352;15.746;2024-02-15T06:05:02;3.10;99.90
13482;DHT22;6813;60.352;15.746;2024-02-15T06:07:30;3.10;99.90
13482;DHT22;6813;60.352;15.746;2024-02-15T06:09:59;3.20;99.90
13482;DHT22;6813;60.352;15.746;2024-02-15T06:12:29;3.30;99.90
13482;DHT22;6813;60.352;15.746;2024-02-15T06:14:54;3.30;99.90
13482;DHT22;6813;60.352;15.746;2024-02-15T06:17:20;3.30;99.90
13482;DHT22;6813;60.352;15.746;2024-02-15T06:19:46;3.20;99.90
13482;DHT22;6813;60.352;15.746;2024-02-15T06:22:12;3.20;99.90
13482;DHT22;6813;60.352;15.746;2024-02-15T06:24:38;3.30;99.90
13482;DHT22;6813;60.352;15.746;2024-02-15T06:27:05;3.30;99.90
13482;DHT22;6813;60.352;15.746;2024-02-15T06:29:31;3.30;99.90
13482;DHT22;6813;60.352;15.746;2024-02-15T06:32:16;3.30;99.90
13482;DHT22;6813;60.352;15.746;2024-02-15T06:35:00;3.20;99.90
13482;DHT22;6813;60.352;15.746;2024-02-15T06:37:44;3.20;99.90
13482;DHT22;6813;60.352;15.746;2024-02-15T06:40:28;3.20;99.90
13482;DHT22;6813;60.352;15.746;2024-02-15T06:42:54;3.20;99.90
13482;DHT22;6813;60.352;15.746;2024-02-15T06:45:20;3.10;99.90
13482;DHT22;6813;60.352;15.746;2024-02-15T06:47:46;3.20;99.90
13482;DHT22;6813;60.352;15.746;2024-02-15T06:50:12;3.20;99.90
13482;DHT22;6813;60.352;15.746;2024-02-15T06:52:39;3.20;99.90
13482;DHT22;6813;60.352;15.746;2024-02-15T06:55:07;3.20;99.90
13482;DHT22;6813;60.352;15.746;2024-02-15T06:57:33;2.90;99.90
13482;DHT22;6813;60.352;15.746;2024-02-15T07:00:03;2.40;99.90
13482;DHT22;6813;60.352;15.746;2024-02-15T07:02:35;2.30;99.90
13482;DHT22;6813;60.352;15.746;2024-02-15T07:05:01;2.50;99.90
13482;DHT22;6813;60.352;15.746;2024-02-15T07:07:28;2.60;99.90
13482;DHT22;6813;60.352;15.746;2024-02-15T07:09:54;2.70;99.90
13482;DHT22;6813;60.352;15.746;2024-02-15T07:12:19;2.80;99.90
13482;DHT22;6813;60.352;15.746;2024-02-15T07:14:47;3.00;99.90
13482;DHT22;6813;60.352;15.746;2024-02-15T07:17:13;3.20;99.90
13482;DHT22;6813;60.352;15.746;2024-02-15T07:19:45;3.30;99.90
13482;DHT22;6813;60.352;15.746;2024-02-15T07:22:11;3.50;99.90
13482;DHT22;6813;60.352;15.746;2024-02-15T07:24:37;3.50;99.90
13482;DHT22;6813;60.352;15.746;2024-02-15T07:27:06;3.60;99.90
13482;DHT22;6813;60.352;15.746;2024-02-15T07:29:31;3.60;99.90
13482;DHT22;6813;60.352;15.746;2024-02-15T07:32:00;3.70;99.90
13482;DHT22;6813;60.352;15.746;2024-02-15T07:34:27;3.50;99.90
13482;DHT22;6813;60.352;15.746;2024-02-15T07:36:53;3.30;99.90
13482;DHT22;6813;60.352;15.746;2024-02-15T07:39:18;3.10;99.90
13482;DHT22;6813;60.352;15.746;2024-02-15T07:41:56;3.10;99.90
13482;DHT22;6813;60.352;15.746;2024-02-15T07:44:24;3.00;99.90
13482;DHT22;6813;60.352;15.746;2024-02-15T07:46:50;3.00;99.90
13482;DHT22;6813;60.352;15.746;2024-02-15T07:49:16;3.10;99.90
13482;DHT22;6813;60.352;15.746;2024-02-15T07:51:43;3.10;99.90
13482;DHT22;6813;60.352;15.746;2024-02-15T07:54:09;3.10;99.90
13482;DHT22;6813;60.352;15.746;2024-02-15T07:56:36;3.30;99.90
13482;DHT22;6813;60.352;15.746;2024-02-15T07:59:01;3.40;99.90
13482;DHT22;6813;60.352;15.746;2024-02-15T08:01:28;3.50;99.90
13482;DHT22;6813;60.352;15.746;2024-02-15T08:03:56;3.60;99.90
13482;DHT22;6813;60.352;15.746;2024-02-15T08:06:25;3.70;99.90
13482;DHT22;6813;60.352;15.746;2024-02-15T08:08:53;3.90;99.90
13482;DHT22;6813;60.352;15.746;2024-02-15T08:11:19;4.00;99.90
13482;DHT22;6813;60.352;15.746;2024-02-15T08:16:13;4.30;99.90
13482;DHT22;6813;60.352;15.746;2024-02-15T08:18:42;4.60;99.90
13482;DHT22;6813;60.352;15.746;2024-02-15T08:21:09;4.80;99.90
13482;DHT22;6813;60.352;15.746;2024-02-15T08:23:36;5.00;99.90
13482;DHT22;6813;60.352;15.746;2024-02-15T08:26:02;5.20;99.90
13482;DHT22;6813;60.352;15.746;2024-02-15T08:28:28;5.30;99.90
13482;DHT22;6813;60.352;15.746;2024-02-15T08:30:55;5.20;99.90
13482;DHT22;6813;60.352;15.746;2024-02-15T08:33:21;5.20;99.90
13482;DHT22;6813;60.352;15.746;2024-02-15T08:35:47;5.40;99.90
13482;DHT22;6813;60.352;15.746;2024-02-15T08:38:13;5.60;99.90
13482;DHT22;6813;60.352;15.746;2024-02-15T08:40:40;5.80;99.90
13482;DHT22;6813;60.352;15.746;2024-02-15T08:43:05;5.90;99.90
13482;DHT22;6813;60.352;15.746;2024-02-15T08:45:31;5.80;99.90
13482;DHT22;6813;60.352;15.746;2024-02-15T08:47:57;5.50;99.90
13482;DHT22;6813;60.352;15.746;2024-02-15T08:50:23;5.30;99.90
13482;DHT22;6813;60.352;15.746;2024-02-15T08:52:49;5.10;99.90
13482;DHT22;6813;60.352;15.746;2024-02-15T08:55:15;5.00;99.90
13482;DHT22;6813;60.352;15.746;2024-02-15T08:57:42;5.10;99.90
13482;DHT22;6813;60.352;15.746;2024-02-15T09:00:10;4.80;99.90
13482;DHT22;6813;60.352;15.746;2024-02-15T09:02:46;4.70;99.90
13482;DHT22;6813;60.352;15.746;2024-02-15T09:05:12;4.50;99.90
13482;DHT22;6813;60.352;15.746;2024-02-15T09:07:43;4.60;99.90
13482;DHT22;6813;60.352;15.746;2024-02-15T09:10:09;4.60;99.90
13482;DHT22;6813;60.352;15.746;2024-02-15T09:12:39;4.70;99.90
13482;DHT22;6813;60.352;15.746;2024-02-15T09:15:09;4.60;99.90
13482;DHT22;6813;60.352;15.746;2024-02-15T09:17:36;4.50;99.90
13482;DHT22;6813;60.352;15.746;2024-02-15T09:20:09;4.70;99.90
13482;DHT22;6813;60.352;15.746;2024-02-15T09:22:41;4.80;99.90
13482;DHT22;6813;60.352;15.746;2024-02-15T09:25:07;4.90;99.90
13482;DHT22;6813;60.352;15.746;2024-02-15T09:27:33;5.00;99.90
13482;DHT22;6813;60.352;15.746;2024-02-15T09:29:59;5.00;99.90
13482;DHT22;6813;60.352;15.746;2024-02-15T09:32:24;5.10;99.90
13482;DHT22;6813;60.352;15.746;2024-02-15T09:34:50;5.10;99.90
13482;DHT22;6813;60.352;15.746;2024-02-15T09:37:16;5.20;99.90
13482;DHT22;6813;60.352;15.746;2024-02-15T09:39:41;5.20;99.90
13482;DHT22;6813;60.352;15.746;2024-02-15T09:42:07;5.20;99.90
13482;DHT22;6813;60.352;15.746;2024-02-15T09:44:33;5.10;99.90
13482;DHT22;6813;60.352;15.746;2024-02-15T09:47:03;5.10;99.90
13482;DHT22;6813;60.352;15.746;2024-02-15T09:49:37;5.00;99.90
13482;DHT22;6813;60.352;15.746;2024-02-15T09:52:06;5.00;99.90
13482;DHT22;6813;60.352;15.746;2024-02-15T09:54:40;5.10;99.90
13482;DHT22;6813;60.352;15.746;2024-02-15T09:57:09;5.10;99.90
13482;DHT22;6813;60.352;15.746;2024-02-15T09:59:36;5.20;99.90
13482;DHT22;6813;60.352;15.746;2024-02-15T10:02:02;5.30;99.90
13482;DHT22;6813;60.352;15.746;2024-02-15T10:04:28;5.40;99.90
13482;DHT22;6813;60.352;15.746;2024-02-15T10:06:54;5.50;99.90
13482;DHT22;6813;60.352;15.746;2024-02-15T10:09:27;5.50;99.90
13482;DHT22;6813;60.352;15.746;2024-02-15T10:11:58;5.60;99.90
13482;DHT22;6813;60.352;15.746;2024-02-15T10:14:25;5.70;99.90
13482;DHT22;6813;60.352;15.746;2024-02-15T10:16:52;5.70;99.90
13482;DHT22;6813;60.352;15.746;2024-02-15T10:19:19;5.80;99.90
13482;DHT22;6813;60.352;15.746;2024-02-15T10:21:49;5.80;99.90
13482;DHT22;6813;60.352;15.746;2024-02-15T10:24:18;5.80;99.90
13482;DHT22;6813;60.352;15.746;2024-02-15T10:26:48;5.90;99.90
13482;DHT22;6813;60.352;15.746;2024-02-15T10:29:14;5.90;99.90
13482;DHT22;6813;60.352;15.746;2024-02-15T10:31:53;5.90;99.90
13482;DHT22;6813;60.352;15.746;2024-02-15T10:34:20;6.00;99.90
13482;DHT22;6813;60.352;15.746;2024-02-15T10:36:46;6.10;99.90
13482;DHT22;6813;60.352;15.746;2024-02-15T10:41:46;6.30;99.90
13482;DHT22;6813;60.352;15.746;2024-02-15T10:44:19;6.30;99.90
13482;DHT22;6813;60.352;15.746;2024-02-15T10:46:56;6.20;99.90
13482;DHT22;6813;60.352;15.746;2024-02-15T10:49:23;6.00;99.90
13482;DHT22;6813;60.352;15.746;2024-02-15T10:51:59;5.90;99.90
13482;DHT22;6813;60.352;15.746;2024-02-15T10:54:50;5.70;99.90
13482;DHT22;6813;60.352;15.746;2024-02-15T10:57:21;5.60;99.90
13482;DHT22;6813;60.352;15.746;2024-02-15T10:59:59;5.50;99.90
13482;DHT22;6813;60.352;15.746;2024-02-15T11:02:56;5.40;99.90
13482;DHT22;6813;60.352;15.746;2024-02-15T11:05:30;5.40;99.90
13482;DHT22;6813;60.352;15.746;2024-02-15T11:07:57;5.60;99.90
13482;DHT22;6813;60.352;15.746;2024-02-15T11:10:25;5.80;99.90
13482;DHT22;6813;60.352;15.746;2024-02-15T11:12:51;5.70;99.90
13482;DHT22;6813;60.352;15.746;2024-02-15T11:18:05;5.60;99.90
13482;DHT22;6813;60.352;15.746;2024-02-15T11:23:02;5.50;99.90
13482;DHT22;6813;60.352;15.746;2024-02-15T11:25:36;5.50;99.90
13482;DHT22;6813;60.352;15.746;2024-02-15T11:30:53;5.60;99.90
13482;DHT22;6813;60.352;15.746;2024-02-15T11:33:28;5.70;99.90
13482;DHT22;6813;60.352;15.746;2024-02-15T11:38:31;5.80;99.90
13482;DHT22;6813;60.352;15.746;2024-02-15T11:46:20;5.70;99.90
13482;DHT22;6813;60.352;15.746;2024-02-15T11:49:03;5.70;99.90
13482;DHT22;6813;60.352;15.746;2024-02-15T11:51:36;5.70;99.90
13482;DHT22;6813;60.352;15.746;2024-02-15T11:54:09;5.80;99.90
13482;DHT22;6813;60.352;15.746;2024-02-15T11:59:22;5.60;99.90
13482;DHT22;6813;60.352;15.746;2024-02-15T12:02:13;5.40;99.90
13482;DHT22;6813;60.352;15.746;2024-02-15T12:05:05;5.20;99.90
13482;DHT22;6813;60.352;15.746;2024-02-15T12:10:58;5.00;99.90
13482;DHT22;6813;60.352;15.746;2024-02-15T12:14:04;5.10;99.90
13482;DHT22;6813;60.352;15.746;2024-02-15T12:17:02;5.20;99.90
13482;DHT22;6813;60.352;15.746;2024-02-15T12:19:48;5.40;99.90
13482;DHT22;6813;60.352;15.746;2024-02-15T12:25:00;5.40;99.90
13482;DHT22;6813;60.352;15.746;2024-02-15T12:27:26;5.40;99.90
13482;DHT22;6813;60.352;15.746;2024-02-15T12:29:59;5.20;99.90
13482;DHT22;6813;60.352;15.746;2024-02-15T12:32:33;5.40;99.90
13482;DHT22;6813;60.352;15.746;2024-02-15T12:35:20;5.50;99.90
13482;DHT22;6813;60.352;15.746;2024-02-15T12:38:01;5.20;99.90
13482;DHT22;6813;60.352;15.746;2024-02-15T12:40:58;5.10;99.90
13482;DHT22;6813;60.352;15.746;2024-02-15T12:43:32;5.00;99.90
13482;DHT22;6813;60.352;15.746;2024-02-15T12:45:58;5.10;99.90
13482;DHT22;6813;60.352;15.746;2024-02-15T12:48:27;5.10;99.90
13482;DHT22;6813;60.352;15.746;2024-02-15T12:51:27;5.10;99.90
13482;DHT22;6813;60.352;15.746;2024-02-15T12:54:10;5.10;99.90
13482;DHT22;6813;60.352;15.746;2024-02-15T12:56:38;5.00;99.90
13482;DHT22;6813;60.352;15.746;2024-02-15T12:59:12;5.10;99.90
13482;DHT22;6813;60.352;15.746;2024-02-15T13:01:38;5.10;99.90
13482;DHT22;6813;60.352;15.746;2024-02-15T13:04:03;5.20;99.90
13482;DHT22;6813;60.352;15.746;2024-02-15T13:06:31;5.20;99.90
13482;DHT22;6813;60.352;15.746;2024-02-15T13:09:01;5.30;99.90
13482;DHT22;6813;60.352;15.746;2024-02-15T13:11:28;5.40;99.90
13482;DHT22;6813;60.352;15.746;2024-02-15T13:13:54;5.40;99.90
13482;DHT22;6813;60.352;15.746;2024-02-15T13:16:23;5.30;99.90
13482;DHT22;6813;60.352;15.746;2024-02-15T13:21:35;5.40;99.90
13482;DHT22;6813;60.352;15.746;2024-02-15T13:24:01;5.50;99.90
13482;DHT22;6813;60.352;15.746;2024-02-15T13:26:32;5.60;99.90
13482;DHT22;6813;60.352;15.746;2024-02-15T13:28:59;5.60;99.90
13482;DHT22;6813;60.352;15.746;2024-02-15T13:31:34;5.50;99.90
13482;DHT22;6813;60.352;15.746;2024-02-15T13:34:02;5.30;99.90
13482;DHT22;6813;60.352;15.746;2024-02-15T13:36:38;5.00;99.90
13482;DHT22;6813;60.352;15.746;2024-02-15T13:39:04;4.70;99.90
13482;DHT22;6813;60.352;15.746;2024-02-15T13:41:30;4.60;99.90
13482;DHT22;6813;60.352;15.746;2024-02-15T13:43:56;4.60;99.90
13482;DHT22;6813;60.352;15.746;2024-02-15T13:46:21;4.50;99.90
13482;DHT22;6813;60.352;15.746;2024-02-15T13:48:47;4.40;99.90
13482;DHT22;6813;60.352;15.746;2024-02-15T13:51:12;4.30;99.90
13482;DHT22;6813;60.352;15.746;2024-02-15T13:53:39;4.30;99.90
13482;DHT22;6813;60.352;15.746;2024-02-15T13:56:06;4.20;99.90
13482;DHT22;6813;60.352;15.746;2024-02-15T13:58:32;4.20;99.90
13482;DHT22;6813;60.352;15.746;2024-02-15T14:01:00;4.30;99.90
13482;DHT22;6813;60.352;15.746;2024-02-15T14:03:29;4.40;99.90
13482;DHT22;6813;60.352;15.746;2024-02-15T14:05:55;4.30;99.90
13482;DHT22;6813;60.352;15.746;2024-02-15T14:08:20;4.40;99.90
13482;DHT22;6813;60.352;15.746;2024-02-15T14:10:54;4.40;99.90
13482;DHT22;6813;60.352;15.746;2024-02-15T14:13:19;4.40;99.90
13482;DHT22;6813;60.352;15.746;2024-02-15T14:15:48;4.40;99.90
13482;DHT22;6813;60.352;15.746;2024-02-15T14:18:13;4.40;99.90
13482;DHT22;6813;60.352;15.746;2024-02-15T14:20:40;4.50;99.90
13482;DHT22;6813;60.352;15.746;2024-02-15T14:23:08;4.70;99.90
13482;DHT22;6813;60.352;15.746;2024-02-15T14:25:39;4.80;99.90
13482;DHT22;6813;60.352;15.746;2024-02-15T14:28:05;4.80;99.90
13482;DHT22;6813;60.352;15.746;2024-02-15T14:30:34;4.80;99.90
13482;DHT22;6813;60.352;15.746;2024-02-15T14:33:21;4.80;99.90
13482;DHT22;6813;60.352;15.746;2024-02-15T14:35:50;4.90;99.90
13482;DHT22;6813;60.352;15.746;2024-02-15T14:38:18;4.90;99.90
13482;DHT22;6813;60.352;15.746;2024-02-15T14:40:57;4.90;99.90
13482;DHT22;6813;60.352;15.746;2024-02-15T14:43:28;4.90;99.90
13482;DHT22;6813;60.352;15.746;2024-02-15T14:45:54;4.90;99.90
13482;DHT22;6813;60.352;15.746;2024-02-15T14:48:21;4.90;99.90
13482;DHT22;6813;60.352;15.746;2024-02-15T14:50:49;5.00;99.90
13482;DHT22;6813;60.352;15.746;2024-02-15T14:53:24;5.00;99.90
13482;DHT22;6813;60.352;15.746;2024-02-15T14:55:50;5.00;99.90
13482;DHT22;6813;60.352;15.746;2024-02-15T14:58:17;5.00;99.90
13482;DHT22;6813;60.352;15.746;2024-02-15T15:00:53;5.00;99.90
13482;DHT22;6813;60.352;15.746;2024-02-15T15:03:19;5.10;99.90
13482;DHT22;6813;60.352;15.746;2024-02-15T15:05:45;5.20;99.90
13482;DHT22;6813;60.352;15.746;2024-02-15T15:08:29;5.20;99.90
13482;DHT22;6813;60.352;15.746;2024-02-15T15:11:23;5.20;99.90
13482;DHT22;6813;60.352;15.746;2024-02-15T15:14:07;5.20;99.90
13482;DHT22;6813;60.352;15.746;2024-02-15T15:16:43;5.20;99.90
13482;DHT22;6813;60.352;15.746;2024-02-15T15:19:09;5.20;99.90
13482;DHT22;6813;60.352;15.746;2024-02-15T15:21:36;5.20;99.90
13482;DHT22;6813;60.352;15.746;2024-02-15T15:24:01;5.20;99.90
13482;DHT22;6813;60.352;15.746;2024-02-15T15:26:27;5.20;99.90
13482;DHT22;6813;60.352;15.746;2024-02-15T15:28:53;5.10;99.90
13482;DHT22;6813;60.352;15.746;2024-02-15T15:31:29;5.20;99.90
13482;DHT22;6813;60.352;15.746;2024-02-15T15:34:02;5.20;99.90
13482;DHT22;6813;60.352;15.746;2024-02-15T15:36:33;5.20;99.90
13482;DHT22;6813;60.352;15.746;2024-02-15T15:39:02;5.20;99.90
13482;DHT22;6813;60.352;15.746;2024-02-15T15:41:34;5.10;99.90
13482;DHT22;6813;60.352;15.746;2024-02-15T15:44:06;5.10;99.90
13482;DHT22;6813;60.352;15.746;2024-02-15T15:46:35;5.10;99.90
13482;DHT22;6813;60.352;15.746;2024-02-15T15:49:01;5.00;99.90
13482;DHT22;6813;60.352;15.746;2024-02-15T15:51:27;5.00;99.90
13482;DHT22;6813;60.352;15.746;2024-02-15T15:53:55;5.00;99.90
13482;DHT22;6813;60.352;15.746;2024-02-15T15:56:21;5.00;99.90
13482;DHT22;6813;60.352;15.746;2024-02-15T15:58:48;4.90;99.90
13482;DHT22;6813;60.352;15.746;2024-02-15T16:01:14;4.90;99.90
13482;DHT22;6813;60.352;15.746;2024-02-15T16:03:40;4.90;99.90
13482;DHT22;6813;60.352;15.746;2024-02-15T16:06:09;4.90;99.90
13482;DHT22;6813;60.352;15.746;2024-02-15T16:08:37;4.90;99.90
13482;DHT22;6813;60.352;15.746;2024-02-15T16:11:03;5.00;99.90
13482;DHT22;6813;60.352;15.746;2024-02-15T16:13:31;4.90;99.90
13482;DHT22;6813;60.352;15.746;2024-02-15T16:15:57;4.90;99.90
13482;DHT22;6813;60.352;15.746;2024-02-15T16:18:23;4.90;99.90
13482;DHT22;6813;60.352;15.746;2024-02-15T16:20:48;4.90;99.90
13482;DHT22;6813;60.352;15.746;2024-02-15T16:23:14;4.80;99.90
13482;DHT22;6813;60.352;15.746;2024-02-15T16:25:40;4.90;99.90
13482;DHT22;6813;60.352;15.746;2024-02-15T16:28:05;4.90;99.90
13482;DHT22;6813;60.352;15.746;2024-02-15T16:30:31;4.90;99.90